Flood From: 19-02-2018 10:30 Until: 20-02-2018 06:00 warning for: Flood Level: Yellow info button

Although rather usual in this region, locally or potentially dangerous phenomena are expected. (such as local winds, summer thunderstorms, rising streams or high waves) Be aware and pay attention to the latest weather updates, especially if you carry out activities exposed to weather or close to a stream or shoreline. 


Meteo18 Weather Cam more information Meteo18 Weather Cam


Thunder radar more information blitzortung!


Rain radar more information rain snow radar


Visit our other weather sites:

Template documentation
and downloads

And another site



Weather Underground History page Text

Daily Summary for May 21, 2017 Units:  English    Metric   Both
« Previous Day
Next Day »
Daily Weekly Monthly Yearly Custom
  High: Low: Average:
Temperature: TemperatureC °F 6.0 °F 14.2 °F
Dew Point: DewpointC °F 5.4 °F 9 °F
Humidity: Humidity % 47 % 73 %
Wind Speed: WindSpeedKMH mph 0.0 mph 3.8 mph
Wind Gust: WindSpeedGustKMH mph - -
Wind:- - ENE
Pressure: PressurehPa in 1019.5 in -
Precipitation: 0.3 in    
Historical Graphs
 
 
Tabular Data for May 21, 2017
Time Temperature Dew Point Pressure Wind Wind Speed Wind Gust Humidity Rainfall Rate (Hourly)
TemperatureC °F DewpointC °F PressurehPa in Calm     Humidity % HourlyPrecipMM in
00:02 8.8 °F 8.0 °F 1026.6 in Calm     95 % 0.0 in
00:07 8.8 °F 8.0 °F 1026.6 in WNW 1.6 mph   95 % 0.0 in
00:12 8.7 °F 7.9 °F 1026.6 in Calm     95 % 0.0 in
00:17 8.7 °F 7.9 °F 1026.6 in Calm   3.2 mph 95 % 0.0 in
00:22 8.6 °F 7.8 °F 1026.6 in Calm   3.2 mph 95 % 0.0 in
00:27 8.6 °F 8.0 °F 1026.6 in Calm   3.2 mph 96 % 0.0 in
00:37 8.7 °F 8.1 °F 1026.6 in NNE 1.6 mph 1.6 mph 96 % 0.0 in
00:42 8.6 °F 8.0 °F 1026.6 in Calm   3.2 mph 96 % 0.0 in
00:52 8.3 °F 7.5 °F 1026.6 in Calm   3.2 mph 95 % 0.0 in
01:02 8.0 °F 7.4 °F 1026.6 in Calm   1.6 mph 96 % 0.0 in
01:12 7.9 °F 7.3 °F 1026.6 in Calm   1.6 mph 96 % 0.0 in
01:17 7.9 °F 7.3 °F 1027.0 in Calm   1.6 mph 96 % 0.0 in
01:22 7.9 °F 7.3 °F 1027.0 in Calm   1.6 mph 96 % 0.0 in
01:32 7.9 °F 7.3 °F 1026.6 in Calm   1.6 mph 96 % 0.0 in
01:42 7.8 °F 7.2 °F 1026.6 in Calm     96 % 0.3 in
01:52 7.7 °F 7.1 °F 1026.6 in Calm     96 % 0.3 in
01:57 7.6 °F 7.0 °F 1026.6 in Calm     96 % 0.3 in
02:02 7.5 °F 6.9 °F 1026.6 in Calm     96 % 0.3 in
02:07 7.5 °F 6.9 °F 1026.6 in Calm     96 % 0.3 in
02:12 7.4 °F 6.8 °F 1026.6 in Calm     96 % 0.3 in
02:17 7.4 °F 6.8 °F 1026.6 in Calm     96 % 0.3 in
02:22 7.5 °F 6.9 °F 1026.6 in Calm     96 % 0.3 in
02:32 7.4 °F 7.0 °F 1026.6 in Calm     97 % 0.3 in
02:37 7.5 °F 7.1 °F 1026.6 in Calm     97 % 0.3 in
02:42 7.5 °F 6.9 °F 1026.6 in Calm     96 % 0.0 in
02:52 7.3 °F 6.7 °F 1026.3 in Calm     96 % 0.0 in
03:02 7.1 °F 6.5 °F 1026.3 in Calm     96 % 0.0 in
03:12 7.1 °F 6.7 °F 1026.3 in Calm     97 % 0.0 in
03:17 7.2 °F 6.8 °F 1026.3 in Calm     97 % 0.0 in
03:22 7.2 °F 6.8 °F 1026.3 in Calm     97 % 0.0 in
03:27 7.3 °F 6.9 °F 1026.3 in Calm     97 % 0.0 in
03:32 7.3 °F 6.9 °F 1026.3 in Calm     97 % 0.0 in
03:42 7.0 °F 6.4 °F 1026.3 in Calm   1.6 mph 96 % 0.0 in
03:52 6.7 °F 6.1 °F 1026.3 in ENE 1.6 mph 1.6 mph 96 % 0.0 in
04:02 6.6 °F 6.0 °F 1026.3 in Calm   4.8 mph 96 % 0.0 in
04:12 6.4 °F 5.8 °F 1026.3 in Calm   3.2 mph 96 % 0.0 in
04:17 6.6 °F 6.2 °F 1026.3 in Calm   1.6 mph 97 % 0.0 in
04:22 6.6 °F 6.2 °F 1026.3 in Calm   1.6 mph 97 % 0.0 in
04:32 6.2 °F 5.6 °F 1026.3 in Calm     96 % 0.0 in
04:42 6.3 °F 5.9 °F 1026.3 in Calm     97 % 0.0 in
04:47 6.3 °F 5.9 °F 1026.3 in Calm     97 % 0.0 in
04:52 6.3 °F 5.9 °F 1026.3 in Calm     97 % 0.0 in
05:02 6.2 °F 5.8 °F 1026.3 in Calm     97 % 0.0 in
05:12 6.0 °F 5.4 °F 1026.3 in Calm     96 % 0.0 in
05:17 6.2 °F 5.8 °F 1026.0 in Calm     97 % 0.0 in
05:22 6.3 °F 5.9 °F 1026.0 in Calm     97 % 0.0 in
05:32 6.1 °F 5.7 °F 1026.0 in Calm     97 % 0.0 in
05:42 6.0 °F 5.6 °F 1026.3 in Calm     97 % 0.0 in
05:52 6.0 °F 5.6 °F 1026.3 in Calm     97 % 0.0 in
05:57 6.0 °F 5.6 °F 1026.3 in Calm     97 % 0.0 in
06:02 6.0 °F 5.6 °F 1026.3 in Calm     97 % 0.0 in
06:07 6.1 °F 5.7 °F 1026.3 in Calm     97 % 0.0 in
06:12 6.1 °F 5.7 °F 1026.3 in Calm     97 % 0.0 in
06:17 6.2 °F 5.8 °F 1026.3 in Calm     97 % 0.0 in
06:22 6.2 °F 5.8 °F 1026.3 in Calm     97 % 0.0 in
06:32 6.2 °F 5.8 °F 1026.3 in Calm     97 % 0.0 in
06:42 6.5 °F 6.1 °F 1026.3 in Calm     97 % 0.0 in
06:47 6.4 °F 5.8 °F 1026.3 in North 1.6 mph   96 % 0.0 in
06:52 6.7 °F 6.3 °F 1026.3 in Calm     97 % 0.0 in
06:57 6.8 °F 6.2 °F 1026.3 in Calm   1.6 mph 96 % 0.0 in
07:02 7.1 °F 6.5 °F 1026.3 in Calm   1.6 mph 96 % 0.0 in
07:12 7.6 °F 7.0 °F 1026.3 in Calm     96 % 0.0 in
07:17 8.3 °F 7.9 °F 1026.3 in Calm     97 % 0.0 in
07:22 8.4 °F 7.8 °F 1026.3 in Calm     96 % 0.0 in
07:32 8.9 °F 8.3 °F 1026.6 in Calm     96 % 0.0 in
07:37 9.1 °F 8.5 °F 1026.6 in Calm   1.6 mph 96 % 0.0 in
07:42 9.2 °F 8.6 °F 1026.6 in Calm   1.6 mph 96 % 0.0 in
07:47 9.5 °F 8.9 °F 1026.6 in Calm   1.6 mph 96 % 0.0 in
07:52 9.9 °F 9.4 °F 1026.6 in Calm   1.6 mph 97 % 0.0 in
08:02 10.9 °F 10.4 °F 1026.3 in Calm     97 % 0.0 in
08:12 11.1 °F 10.3 °F 1026.3 in Calm     95 % 0.0 in
08:17 11.1 °F 10.3 °F 1026.3 in Calm     95 % 0.0 in
08:22 11.4 °F 10.6 °F 1026.3 in Calm     95 % 0.0 in
08:32 11.7 °F 10.6 °F 1026.3 in Calm     93 % 0.0 in
08:42 11.9 °F 10.5 °F 1026.3 in Calm     91 % 0.0 in
08:47 12.2 °F 10.4 °F 1026.3 in Calm     89 % 0.0 in
08:52 12.4 °F 10.3 °F 1026.3 in Calm     87 % 0.0 in
09:02 12.7 °F 10.6 °F 1026.6 in Calm   3.2 mph 87 % 0.0 in
09:12 13.2 °F 10.7 °F 1026.6 in Calm   4.8 mph 85 % 0.0 in
09:17 13.3 °F 10.8 °F 1026.6 in NE 3.2 mph 4.8 mph 85 % 0.0 in
09:22 13.4 °F 10.9 °F 1026.6 in NE 3.2 mph 4.8 mph 85 % 0.0 in
09:32 13.8 °F 11.1 °F 1026.6 in ESE 1.6 mph 4.8 mph 84 % 0.0 in
09:42 14.1 °F 11.3 °F 1026.6 in ENE 4.8 mph 6.4 mph 83 % 0.0 in
09:52 14.4 °F 11.2 °F 1026.3 in NE 6.4 mph 6.4 mph 81 % 0.0 in
09:57 14.5 °F 10.9 °F 1026.3 in ENE 6.4 mph 9.7 mph 79 % 0.0 in
10:02 14.7 °F 11.5 °F 1026.3 in ENE 6.4 mph 9.7 mph 81 % 0.0 in
10:12 14.9 °F 11.3 °F 1026.3 in ENE 3.2 mph 9.7 mph 79 % 0.0 in
10:17 15.0 °F 10.6 °F 1026.3 in East 4.8 mph 9.7 mph 75 % 0.0 in
10:22 15.2 °F 11.0 °F 1026.3 in NE 3.2 mph 9.7 mph 76 % 0.0 in
10:32 15.3 °F 10.9 °F 1026.3 in NNE 4.8 mph 11.3 mph 75 % 0.0 in
10:42 15.6 °F 11.6 °F 1026.0 in ESE 9.7 mph 12.9 mph 77 % 0.0 in
10:47 15.8 °F 11.6 °F 1026.0 in ENE 12.9 mph 12.9 mph 76 % 0.0 in
10:52 15.7 °F 11.1 °F 1026.0 in NNE 8.0 mph 11.3 mph 74 % 0.0 in
11:02 16.1 °F 11.3 °F 1026.0 in ENE 9.7 mph 12.9 mph 73 % 0.0 in
11:12 16.3 °F 11.0 °F 1026.0 in ENE 3.2 mph 11.3 mph 71 % 0.0 in
11:17 16.4 °F 10.9 °F 1026.0 in NNE 6.4 mph 11.3 mph 70 % 0.0 in
11:22 16.5 °F 10.8 °F 1026.0 in NE 4.8 mph 11.3 mph 69 % 0.0 in
11:32 16.8 °F 9.7 °F 1026.0 in ENE 8.0 mph 14.5 mph 63 % 0.0 in
11:42 17.3 °F 10.4 °F 1025.6 in NE 3.2 mph 14.5 mph 64 % 0.0 in
11:47 17.4 °F 11.0 °F 1025.6 in ENE 3.2 mph 11.3 mph 66 % 0.0 in
11:52 17.4 °F 10.5 °F 1025.6 in ENE 9.7 mph 11.3 mph 64 % 0.0 in
12:02 17.4 °F 10.5 °F 1025.6 in ENE 4.8 mph 14.5 mph 64 % 0.0 in
12:12 17.6 °F 10.2 °F 1025.6 in East 9.7 mph 17.7 mph 62 % 0.0 in
12:17 17.7 °F 10.3 °F 1025.6 in East 6.4 mph 17.7 mph 62 % 0.0 in
12:22 17.4 °F 9.3 °F 1025.6 in ENE 3.2 mph 17.7 mph 59 % 0.0 in
12:32 17.8 °F 9.9 °F 1025.3 in NNE 4.8 mph 17.7 mph 60 % 0.0 in
12:37 17.7 °F 9.8 °F 1025.3 in ENE 3.2 mph 17.7 mph 60 % 0.0 in
12:42 17.8 °F 9.7 °F 1025.3 in NE 6.4 mph 17.7 mph 59 % 0.0 in
12:47 18.0 °F 9.1 °F 1025.3 in ENE 6.4 mph 12.9 mph 56 % 0.0 in
12:52 18.1 °F 8.9 °F 1025.3 in ENE 1.6 mph 12.9 mph 55 % 0.0 in
13:02 18.4 °F 9.2 °F 1024.9 in ENE 4.8 mph 16.1 mph 55 % 0.0 in
13:12 18.7 °F 8.9 °F 1024.9 in ENE 6.4 mph 17.7 mph 53 % 0.0 in
13:17 18.8 °F 8.2 °F 1024.9 in ENE 12.9 mph 17.7 mph 50 % 0.0 in
13:22 18.7 °F 8.4 °F 1024.9 in NE 8.0 mph 17.7 mph 51 % 0.0 in
13:32 19.1 °F 8.4 °F 1024.6 in East 4.8 mph 17.7 mph 50 % 0.0 in
13:37 19.2 °F 8.5 °F 1024.6 in ENE 9.7 mph 9.7 mph 50 % 0.0 in
13:42 19.2 °F 7.9 °F 1024.6 in NE 14.5 mph 14.5 mph 48 % 0.0 in
13:52 19.1 °F 7.5 °F 1024.6 in East 8.0 mph 20.9 mph 47 % 0.0 in
14:02 19.2 °F 8.8 °F 1024.3 in ESE 4.8 mph 20.9 mph 51 % 0.0 in
14:12 19.6 °F 8.6 °F 1024.3 in East 3.2 mph 17.7 mph 49 % 0.0 in
14:22 19.5 °F 8.8 °F 1024.3 in ENE 8.0 mph 14.5 mph 50 % 0.0 in
14:27 19.7 °F 8.7 °F 1024.3 in NE 11.3 mph 20.9 mph 49 % 0.0 in
14:32 20.0 °F 9.6 °F 1023.9 in ESE 3.2 mph 20.9 mph 51 % 0.0 in
14:42 20.1 °F 9.1 °F 1023.9 in East 8.0 mph 14.5 mph 49 % 0.0 in
14:47 19.9 °F 8.6 °F 1023.9 in East 4.8 mph 14.5 mph 48 % 0.0 in
14:52 20.0 °F 9.3 °F 1023.6 in East 8.0 mph 14.5 mph 50 % 0.0 in
15:02 20.1 °F 9.6 °F 1023.6 in East 11.3 mph 14.5 mph 51 % 0.0 in
15:12 20.3 °F 9.5 °F 1023.6 in ENE 11.3 mph 16.1 mph 50 % 0.0 in
15:17 20.2 °F 9.4 °F 1023.6 in ENE 17.7 mph 20.9 mph 50 % 0.0 in
15:22 20.0 °F 8.7 °F 1023.6 in ENE 4.8 mph 20.9 mph 48 % 0.0 in
15:32 20.3 °F 11.0 °F 1023.6 in ENE 8.0 mph 20.9 mph 55 % 0.0 in
15:42 19.8 °F 9.4 °F 1023.2 in NNE 11.3 mph 16.1 mph 51 % 0.0 in
15:47 19.9 °F 9.2 °F 1023.2 in NE 9.7 mph 22.5 mph 50 % 0.0 in
15:52 19.9 °F 9.5 °F 1023.2 in NE 4.8 mph 22.5 mph 51 % 0.0 in
15:57 20.1 °F 9.4 °F 1023.2 in ENE 1.6 mph 17.7 mph 50 % 0.0 in
16:02 20.3 °F 9.5 °F 1023.2 in ENE 4.8 mph 17.7 mph 50 % 0.0 in
16:12 20.1 °F 9.4 °F 1022.9 in East 4.8 mph 14.5 mph 50 % 0.0 in
16:17 20.3 °F 9.2 °F 1022.9 in East 1.6 mph 17.7 mph 49 % 0.0 in
16:22 20.3 °F 9.8 °F 1022.9 in ENE 9.7 mph 17.7 mph 51 % 0.0 in
16:32 20.2 °F 9.7 °F 1022.6 in East 8.0 mph 14.5 mph 51 % 0.0 in
16:37 20.3 °F 9.2 °F 1022.6 in ENE 6.4 mph 16.1 mph 49 % 0.0 in
16:42 20.2 °F 9.7 °F 1022.6 in NE 11.3 mph 16.1 mph 51 % 0.0 in
16:47 20.3 °F 9.8 °F 1022.2 in NE 9.7 mph 14.5 mph 51 % 0.0 in
16:52 20.1 °F 9.4 °F 1022.2 in ENE 3.2 mph 14.5 mph 50 % 0.0 in
16:57 20.2 °F 9.7 °F 1022.2 in East 3.2 mph 16.1 mph 51 % 0.0 in
17:02 20.4 °F 10.2 °F 1022.2 in East 12.9 mph 16.1 mph 52 % 0.0 in
17:07 20.3 °F 9.2 °F 1022.2 in NNE 9.7 mph 16.1 mph 49 % 0.0 in
17:12 20.3 °F 9.5 °F 1021.9 in NE 12.9 mph 16.1 mph 50 % 0.0 in
17:17 20.4 °F 10.2 °F 1022.2 in ENE 6.4 mph 16.1 mph 52 % 0.0 in
17:22 20.3 °F 9.5 °F 1022.2 in ENE 4.8 mph 16.1 mph 50 % 0.0 in
17:32 20.5 °F 9.4 °F 1021.9 in ESE 4.8 mph 14.5 mph 49 % 0.0 in
17:37 20.5 °F 9.7 °F 1021.9 in NNE 8.0 mph 12.9 mph 50 % 0.0 in
17:42 20.5 °F 9.4 °F 1021.6 in NE 17.7 mph 20.9 mph 49 % 0.0 in
17:47 20.4 °F 9.6 °F 1021.6 in ENE 9.7 mph 20.9 mph 50 % 0.0 in
17:52 20.4 °F 8.7 °F 1021.6 in ENE 9.7 mph 20.9 mph 47 % 0.0 in
18:02 20.6 °F 10.1 °F 1021.6 in ENE 1.6 mph 19.3 mph 51 % 0.0 in
18:07 20.7 °F 10.5 °F 1021.6 in East 4.8 mph 16.1 mph 52 % 0.0 in
18:12 20.7 °F 9.9 °F 1021.6 in ENE 11.3 mph 16.1 mph 50 % 0.0 in
18:17 20.6 °F 8.9 °F 1021.6 in ENE 1.6 mph 14.5 mph 47 % 0.0 in
18:22 20.6 °F 9.2 °F 1021.2 in NE 4.8 mph 17.7 mph 48 % 0.0 in
18:27 20.6 °F 9.8 °F 1021.2 in ENE 12.9 mph 17.7 mph 50 % 0.0 in
18:32 20.5 °F 9.4 °F 1021.2 in East 3.2 mph 19.3 mph 49 % 0.0 in
18:37 20.5 °F 10.0 °F 1021.2 in ENE 9.7 mph 19.3 mph 51 % 0.0 in
18:42 20.5 °F 10.3 °F 1021.2 in NE 6.4 mph 19.3 mph 52 % 0.0 in
18:52 20.6 °F 10.7 °F 1021.2 in East 6.4 mph 12.9 mph 53 % 0.0 in
19:02 20.4 °F 9.9 °F 1020.9 in ESE 8.0 mph 12.9 mph 51 % 0.0 in
19:07 20.4 °F 10.5 °F 1020.9 in East 4.8 mph 12.9 mph 53 % 0.0 in
19:12 20.3 °F 10.7 °F 1020.9 in ENE 6.4 mph 12.9 mph 54 % 0.0 in
19:17 20.3 °F 9.8 °F 1020.9 in East 6.4 mph 16.1 mph 51 % 0.0 in
19:22 20.2 °F 9.7 °F 1020.9 in ENE 9.7 mph 16.1 mph 51 % 0.0 in
19:32 20.1 °F 10.5 °F 1020.5 in East 3.2 mph 17.7 mph 54 % 0.0 in
19:37 20.1 °F 10.8 °F 1020.5 in ENE 3.2 mph 11.3 mph 55 % 0.0 in
19:42 19.9 °F 10.9 °F 1020.5 in ENE 6.4 mph 11.3 mph 56 % 0.0 in
19:47 19.8 °F 11.0 °F 1020.5 in ENE 6.4 mph 9.7 mph 57 % 0.0 in
19:52 19.7 °F 10.7 °F 1020.5 in ENE 6.4 mph 9.7 mph 56 % 0.0 in
19:57 19.6 °F 11.1 °F 1020.5 in ENE 3.2 mph 9.7 mph 58 % 0.0 in
20:02 19.5 °F 11.3 °F 1020.5 in ENE 3.2 mph 9.7 mph 59 % 0.0 in
20:12 19.2 °F 11.5 °F 1020.5 in ENE 3.2 mph 8.0 mph 61 % 0.0 in
20:17 18.9 °F 11.5 °F 1020.5 in East 3.2 mph 6.4 mph 62 % 0.0 in
20:22 18.8 °F 11.8 °F 1020.5 in ENE 4.8 mph 6.4 mph 64 % 0.0 in
20:32 18.4 °F 11.5 °F 1020.5 in ENE 1.6 mph 4.8 mph 64 % 0.0 in
20:42 18.1 °F 11.4 °F 1020.2 in ENE 3.2 mph 4.8 mph 65 % 0.0 in
20:47 17.9 °F 11.5 °F 1020.2 in ENE 1.6 mph 4.8 mph 66 % 0.0 in
20:52 17.8 °F 11.1 °F 1020.2 in ENE 1.6 mph 4.8 mph 65 % 0.0 in
21:02 17.7 °F 10.6 °F 1020.2 in NE 3.2 mph 4.8 mph 63 % 0.0 in
21:12 17.6 °F 10.5 °F 1020.2 in NNE 3.2 mph 4.8 mph 63 % 0.0 in
21:17 17.6 °F 10.2 °F 1020.2 in NE 3.2 mph 4.8 mph 62 % 0.0 in
21:22 17.4 °F 10.3 °F 1020.2 in NE 3.2 mph 4.8 mph 63 % 0.0 in
21:32 17.1 °F 10.7 °F 1020.2 in NE 3.2 mph 6.4 mph 66 % 0.0 in
21:37 16.9 °F 10.5 °F 1020.2 in NE 3.2 mph 8.0 mph 66 % 0.0 in
21:42 16.7 °F 10.5 °F 1020.2 in NE 4.8 mph 8.0 mph 67 % 0.0 in
21:47 16.5 °F 10.6 °F 1019.9 in NE 3.2 mph 8.0 mph 68 % 0.0 in
21:57 16.3 °F 10.6 °F 1020.2 in NE 3.2 mph 6.4 mph 69 % 0.0 in
22:07 15.9 °F 10.4 °F 1019.9 in NE 3.2 mph 6.4 mph 70 % 0.0 in
22:12 15.9 °F 10.4 °F 1020.2 in NE 3.2 mph 6.4 mph 70 % 0.0 in
22:17 15.9 °F 10.4 °F 1019.9 in NNE 4.8 mph 6.4 mph 70 % 0.0 in
22:22 15.9 °F 10.2 °F 1019.9 in NE 4.8 mph 6.4 mph 69 % 0.0 in
22:32 15.7 °F 10.2 °F 1019.9 in NE 6.4 mph 8.0 mph 70 % 0.0 in
22:42 15.4 °F 10.0 °F 1019.9 in NE 4.8 mph 8.0 mph 70 % 0.0 in
22:47 15.3 °F 10.1 °F 1019.9 in NE 4.8 mph 9.7 mph 71 % 0.0 in
22:52 15.1 °F 10.1 °F 1019.9 in NE 4.8 mph 9.7 mph 72 % 0.0 in
22:57 14.8 °F 10.0 °F 1019.5 in ENE 4.8 mph 9.7 mph 73 % 0.0 in
23:02 14.8 °F 10.0 °F 1019.5 in NE 6.4 mph 9.7 mph 73 % 0.0 in
23:12 14.8 °F 10.0 °F 1019.5 in ENE 4.8 mph 9.7 mph 73 % 0.0 in
23:17 14.8 °F 10.0 °F 1019.5 in ENE 4.8 mph 9.7 mph 73 % 0.0 in
23:22 14.6 °F 10.0 °F 1019.5 in ENE 3.2 mph 9.7 mph 74 % 0.0 in
23:27 14.4 °F 10.0 °F 1019.5 in East 3.2 mph 8.0 mph 75 % 0.0 in
23:32 14.3 °F 9.9 °F 1019.5 in ENE 1.6 mph 8.0 mph 75 % 0.0 in
23:37 14.2 °F 9.8 °F 1019.5 in East 3.2 mph 6.4 mph 75 % 0.0 in
23:42 14.2 °F 9.8 °F 1019.5 in ENE 1.6 mph 6.4 mph 75 % 0.0 in
23:52 14.5 °F 9.7 °F 1019.5 in ENE 4.8 mph 4.8 mph 73 % 0.0 in
23:57 14.4 °F 9.6 °F 1019.5 in ENE 4.8 mph 6.4 mph 73 % 0.0 in
Meteo18
Compliments of Weather Underground - 4 mb

Script developed by  Jim McMurry - jmcmurry@mwt.net Adapted for the template by  Wim van der Kuil - Leuven-Template.eu

You find our weather info also at:

European Weather Network

Weather Underground

Equipment we use:

Weather-station
Davis Vue

Weather-program
Meteobridge

Weather-server
Raspberry PI 2 B+

Provider
1 and 1

Davis Vue

Meteobridge

Raspberry PI 2 B+

1 and 1